createdAt,value
2022-10-28T00:01:32.834Z,8.37
2022-10-28T00:04:02.170Z,8.44
2022-10-28T00:06:34.014Z,8.49
2022-10-28T00:09:05.687Z,8.51
2022-10-28T00:11:36.660Z,8.45
2022-10-28T00:14:07.452Z,8.40
2022-10-28T00:16:38.025Z,8.38
2022-10-28T00:19:08.333Z,8.38
2022-10-28T00:21:38.831Z,8.37
2022-10-28T00:24:09.417Z,8.41
2022-10-28T00:26:42.522Z,8.40
2022-10-28T00:29:14.616Z,8.38
2022-10-28T00:31:43.843Z,8.37
2022-10-28T00:34:17.281Z,8.34
2022-10-28T00:36:47.019Z,8.30
2022-10-28T00:39:21.073Z,8.31
2022-10-28T00:41:50.905Z,8.31
2022-10-28T00:45:01.291Z,8.30
2022-10-28T00:47:52.856Z,8.33
2022-10-28T00:50:27.673Z,8.52
2022-10-28T00:53:03.974Z,8.60
2022-10-28T00:55:33.592Z,8.72
2022-10-28T00:58:04.809Z,8.86
2022-10-28T01:00:33.525Z,9.06
2022-10-28T01:03:02.062Z,9.21
2022-10-28T01:05:35.272Z,9.33
2022-10-28T01:08:05.546Z,9.46
2022-10-28T01:10:52.596Z,9.57
2022-10-28T01:13:40.642Z,9.69
2022-10-28T01:16:53.847Z,9.76
2022-10-28T01:19:24.933Z,9.80
2022-10-28T01:22:14.855Z,9.85
2022-10-28T01:25:15.797Z,9.88
2022-10-28T01:27:50.475Z,9.90
2022-10-28T01:30:25.665Z,9.92
2022-10-28T01:33:27.203Z,9.93
2022-10-28T01:36:04.295Z,9.92
2022-10-28T01:38:54.959Z,9.92
2022-10-28T01:41:48.744Z,9.91
2022-10-28T01:44:32.335Z,9.93
2022-10-28T01:47:16.834Z,9.94
2022-10-28T01:50:09.618Z,9.96
2022-10-28T01:52:40.508Z,9.97
2022-10-28T01:55:46.134Z,9.98
2022-10-28T01:58:20.318Z,10.00
2022-10-28T02:00:49.438Z,9.99
2022-10-28T02:03:18.324Z,9.96
2022-10-28T02:05:57.058Z,9.95
2022-10-28T02:09:03.061Z,9.94
2022-10-28T02:11:48.490Z,9.90
2022-10-28T02:14:46.141Z,9.88
2022-10-28T02:17:14.589Z,9.82
2022-10-28T02:19:54.963Z,9.81
2022-10-28T02:22:30.915Z,9.82
2022-10-28T02:25:14.544Z,9.82
2022-10-28T02:30:58.458Z,9.80
2022-10-28T02:33:35.797Z,9.77
2022-10-28T02:36:06.416Z,9.76
2022-10-28T02:38:39.717Z,9.76
2022-10-28T02:41:35.372Z,9.76
2022-10-28T02:44:10.313Z,9.79
2022-10-28T02:46:42.939Z,9.80
2022-10-28T02:49:14.825Z,9.81
2022-10-28T02:51:49.207Z,9.82
2022-10-28T02:54:44.054Z,9.82
2022-10-28T02:57:20.120Z,9.85
2022-10-28T02:59:57.788Z,9.87
2022-10-28T03:02:27.802Z,9.90
2022-10-28T03:04:56.302Z,9.90
2022-10-28T03:07:24.770Z,9.93
2022-10-28T03:09:53.168Z,9.96
2022-10-28T03:12:24.787Z,9.96
2022-10-28T03:14:53.278Z,9.96
2022-10-28T03:17:21.726Z,9.97
2022-10-28T03:19:50.226Z,10.00
2022-10-28T03:22:18.696Z,10.01
2022-10-28T03:24:47.211Z,10.02
2022-10-28T03:27:15.704Z,10.02
2022-10-28T03:29:45.988Z,10.03
2022-10-28T03:32:14.985Z,10.05
2022-10-28T03:34:43.533Z,10.03
2022-10-28T03:37:12.503Z,10.03
2022-10-28T03:39:41.061Z,10.03
2022-10-28T03:42:09.474Z,10.05
2022-10-28T03:44:37.918Z,10.04
2022-10-28T03:47:06.294Z,10.06
2022-10-28T03:49:34.767Z,10.07
2022-10-28T03:52:04.436Z,10.05
2022-10-28T03:54:32.976Z,10.04
2022-10-28T03:57:01.402Z,9.98
2022-10-28T03:59:29.894Z,9.92
2022-10-28T04:01:58.449Z,9.86
2022-10-28T04:04:30.021Z,9.85
2022-10-28T04:06:59.528Z,9.85
2022-10-28T04:09:28.041Z,9.82
2022-10-28T04:11:56.548Z,9.83
2022-10-28T04:14:25.041Z,9.82
2022-10-28T04:16:53.480Z,9.83
2022-10-28T04:19:22.038Z,9.82
2022-10-28T04:21:50.587Z,9.80
2022-10-28T04:24:19.041Z,9.79
2022-10-28T04:26:47.591Z,9.78
2022-10-28T04:29:16.065Z,9.78
2022-10-28T04:31:47.471Z,9.80
2022-10-28T04:34:18.312Z,9.83
2022-10-28T04:36:46.774Z,9.83
2022-10-28T04:39:15.229Z,9.82
2022-10-28T04:41:43.765Z,9.86
2022-10-28T04:44:12.246Z,9.92
2022-10-28T04:46:40.815Z,9.95
2022-10-28T04:49:10.304Z,9.93
2022-10-28T04:51:38.900Z,9.91
2022-10-28T04:54:07.710Z,9.90
2022-10-28T04:56:36.167Z,9.91
2022-10-28T04:59:04.709Z,9.91
2022-10-28T05:01:33.250Z,9.91
2022-10-28T05:04:01.842Z,9.94
2022-10-28T05:06:30.265Z,9.97
2022-10-28T05:08:58.850Z,9.99
2022-10-28T05:11:27.302Z,10.02
2022-10-28T05:13:55.897Z,10.02
2022-10-28T05:16:24.444Z,10.01
2022-10-28T05:18:52.924Z,10.03
2022-10-28T05:21:21.468Z,10.04
2022-10-28T05:23:50.054Z,10.03
2022-10-28T05:26:18.666Z,10.01
2022-10-28T05:28:51.072Z,10.01
2022-10-28T05:31:19.687Z,10.04
2022-10-28T05:33:48.091Z,10.04
2022-10-28T05:36:16.551Z,10.04
2022-10-28T05:38:45.820Z,10.07
2022-10-28T05:41:14.351Z,10.10
2022-10-28T05:43:42.740Z,10.14
2022-10-28T05:46:11.400Z,10.19
2022-10-28T05:48:39.873Z,10.24
2022-10-28T05:51:08.373Z,10.27
2022-10-28T05:53:36.933Z,10.28
2022-10-28T05:56:05.422Z,10.30
2022-10-28T05:58:33.986Z,10.35
2022-10-28T06:01:02.395Z,10.44
2022-10-28T06:03:31.412Z,10.51
2022-10-28T06:06:00.718Z,10.56
2022-10-28T06:08:29.336Z,10.60
2022-10-28T06:10:56.258Z,10.61
2022-10-28T06:13:24.806Z,10.65
2022-10-28T06:15:56.136Z,10.71
2022-10-28T06:18:24.662Z,10.78
2022-10-28T06:20:55.179Z,10.87
2022-10-28T06:23:25.534Z,10.98
2022-10-28T06:25:59.314Z,11.11
2022-10-28T06:28:28.603Z,11.23
2022-10-28T06:31:05.141Z,11.48
2022-10-28T06:33:34.508Z,11.91
2022-10-28T06:36:03.435Z,12.32
2022-10-28T06:38:32.075Z,12.57
2022-10-28T06:41:01.138Z,13.19
2022-10-28T06:43:29.635Z,13.90
2022-10-28T06:46:02.818Z,14.37
2022-10-28T06:48:32.777Z,14.82
2022-10-28T06:51:01.544Z,15.57
2022-10-28T06:53:30.170Z,15.65
2022-10-28T06:55:59.742Z,15.64
2022-10-28T06:58:28.620Z,16.19
2022-10-28T07:01:05.270Z,16.51
2022-10-28T07:03:48.774Z,16.53
2022-10-28T07:06:17.737Z,16.77
2022-10-28T07:08:46.359Z,17.56
2022-10-28T07:11:14.883Z,18.80
2022-10-28T07:14:11.684Z,19.98
2022-10-28T07:16:40.358Z,21.04
2022-10-28T07:19:09.381Z,21.95
2022-10-28T07:21:38.418Z,22.82
2022-10-28T07:24:07.117Z,23.77
2022-10-28T07:26:35.826Z,24.44
2022-10-28T07:29:05.056Z,25.09
2022-10-28T07:31:33.667Z,25.84
2022-10-28T07:34:02.093Z,26.63
2022-10-28T07:36:30.556Z,27.10
2022-10-28T07:38:59.309Z,27.11
2022-10-28T07:41:28.183Z,27.92
2022-10-28T07:43:56.822Z,28.69
2022-10-28T07:46:26.031Z,29.65
2022-10-28T07:48:54.559Z,30.57
2022-10-28T07:51:23.133Z,31.43
2022-10-28T07:53:51.630Z,32.01
2022-10-28T07:56:20.242Z,32.69
2022-10-28T07:58:48.805Z,33.14
2022-10-28T08:01:19.572Z,33.37
2022-10-28T08:03:48.909Z,33.42
2022-10-28T08:06:20.087Z,33.82
2022-10-28T08:08:53.286Z,34.39
2022-10-28T08:11:24.133Z,34.75
2022-10-28T08:14:29.864Z,35.03
2022-10-28T08:16:58.342Z,35.32
2022-10-28T08:19:26.931Z,35.68
2022-10-28T08:21:55.424Z,36.06
2022-10-28T08:24:24.165Z,36.31
2022-10-28T08:26:52.707Z,36.21
2022-10-28T08:29:21.226Z,36.53
2022-10-28T08:31:49.729Z,36.55
2022-10-28T08:34:18.404Z,36.63
2022-10-28T08:36:46.891Z,36.63
2022-10-28T08:39:15.436Z,36.73
2022-10-28T08:41:56.740Z,37.24
2022-10-28T08:44:25.130Z,37.65
2022-10-28T08:47:05.830Z,37.98
2022-10-28T08:49:38.811Z,37.67
2022-10-28T08:52:19.597Z,35.78
2022-10-28T08:55:00.497Z,33.57
2022-10-28T08:57:43.574Z,31.69
2022-10-28T09:00:26.023Z,30.04
2022-10-28T09:03:40.623Z,28.54
2022-10-28T09:06:10.939Z,26.79
2022-10-28T09:08:45.725Z,25.60
2022-10-28T09:11:49.699Z,24.79
2022-10-28T09:14:36.689Z,23.94
2022-10-28T09:20:52.879Z,22.47
2022-10-28T09:23:22.942Z,22.17
2022-10-28T09:26:10.991Z,21.78
2022-10-28T09:28:41.935Z,21.41
2022-10-28T09:31:38.264Z,21.12
2022-10-28T09:34:24.784Z,20.89
2022-10-28T09:37:13.512Z,20.72
2022-10-28T09:39:48.729Z,20.59
2022-10-28T09:42:33.075Z,20.45
2022-10-28T09:45:05.742Z,20.24
2022-10-28T09:47:41.908Z,20.08
2022-10-28T09:50:17.878Z,19.95
2022-10-28T09:53:09.594Z,19.86
2022-10-28T09:55:38.230Z,19.78
2022-10-28T09:58:06.810Z,19.69
2022-10-28T10:00:35.394Z,19.63
2022-10-28T10:03:04.451Z,19.54
2022-10-28T10:05:37.908Z,19.43
2022-10-28T10:08:07.491Z,19.35
2022-10-28T10:10:44.976Z,19.30
2022-10-28T10:13:18.024Z,19.31
2022-10-28T10:15:53.127Z,19.32
2022-10-28T10:18:27.951Z,19.26
2022-10-28T10:20:59.013Z,19.24
2022-10-28T10:26:17.241Z,19.17
2022-10-28T10:28:48.732Z,19.14
2022-10-28T10:31:25.755Z,19.10
2022-10-28T10:33:56.800Z,19.07
2022-10-28T10:36:31.838Z,19.06
2022-10-28T10:39:03.166Z,19.09
2022-10-28T10:41:45.271Z,19.11
2022-10-28T10:44:22.917Z,19.07
2022-10-28T10:47:04.976Z,18.99
2022-10-28T10:49:36.096Z,18.97
2022-10-28T10:52:23.997Z,19.01
2022-10-28T10:55:07.198Z,19.10
2022-10-28T10:57:35.350Z,19.26
2022-10-28T11:00:05.156Z,19.46
2022-10-28T11:02:40.044Z,19.55
2022-10-28T11:05:12.037Z,19.59
2022-10-28T11:07:48.541Z,19.59
2022-10-28T11:10:29.892Z,19.59
2022-10-28T11:13:03.589Z,19.60
2022-10-28T11:15:32.648Z,19.65
2022-10-28T11:18:04.028Z,19.61
2022-10-28T11:20:44.425Z,19.51
2022-10-28T11:23:43.515Z,19.42
2022-10-28T11:26:15.825Z,19.44
2022-10-28T11:28:53.384Z,19.42
2022-10-28T11:31:30.533Z,19.33
2022-10-28T11:34:28.495Z,19.23
2022-10-28T11:37:09.933Z,19.10
2022-10-28T11:40:07.490Z,18.97
2022-10-28T11:43:17.812Z,18.91
2022-10-28T11:45:59.364Z,19.08
2022-10-28T11:48:52.109Z,19.32
2022-10-28T11:51:35.713Z,19.56
2022-10-28T11:54:20.773Z,19.78
2022-10-28T11:57:13.712Z,19.94
2022-10-28T11:59:54.153Z,20.08
2022-10-28T12:02:38.123Z,20.21
2022-10-28T12:05:21.108Z,20.27
2022-10-28T12:08:14.346Z,20.27
2022-10-28T12:10:58.100Z,20.24
2022-10-28T12:13:55.676Z,20.23
2022-10-28T12:16:30.042Z,20.23
2022-10-28T12:19:09.349Z,20.24
2022-10-28T12:22:06.879Z,20.08
2022-10-28T12:24:39.174Z,19.89
2022-10-28T12:27:18.998Z,19.88
2022-10-28T12:29:51.751Z,19.87
2022-10-28T12:32:28.475Z,19.95
2022-10-28T12:35:16.948Z,20.04
2022-10-28T12:38:07.130Z,20.17
2022-10-28T12:41:04.710Z,20.23
2022-10-28T12:43:39.380Z,20.33
2022-10-28T12:46:21.267Z,20.28
2022-10-28T12:48:59.129Z,20.13
2022-10-28T12:51:37.282Z,20.00
2022-10-28T12:54:22.245Z,19.94
2022-10-28T12:56:55.419Z,20.00
2022-10-28T13:00:00.451Z,20.15
2022-10-28T13:02:34.834Z,20.22
2022-10-28T13:05:05.292Z,20.13
2022-10-28T13:07:59.772Z,20.06
2022-10-28T13:10:54.513Z,19.97
2022-10-28T13:13:30.174Z,19.90
2022-10-28T13:16:37.182Z,19.87
2022-10-28T13:19:46.095Z,19.85
2022-10-28T13:22:53.221Z,19.80
2022-10-28T13:25:43.423Z,19.71
2022-10-28T13:28:17.236Z,19.59
2022-10-28T13:30:58.990Z,19.46
2022-10-28T13:33:29.798Z,19.31
2022-10-28T13:36:39.001Z,19.19
2022-10-28T13:39:24.437Z,19.06
2022-10-28T13:42:15.171Z,18.97
2022-10-28T13:44:53.674Z,18.96
2022-10-28T13:47:36.290Z,18.95
2022-10-28T13:50:10.357Z,18.95
2022-10-28T13:52:41.161Z,18.97
2022-10-28T13:55:43.890Z,18.95
2022-10-28T13:58:24.798Z,18.88
2022-10-28T14:00:54.777Z,18.84
2022-10-28T14:03:26.817Z,18.80
2022-10-28T14:05:58.501Z,18.77
2022-10-28T14:08:29.860Z,18.77
2022-10-28T14:11:03.355Z,18.77
2022-10-28T14:13:47.878Z,18.72
2022-10-28T14:16:25.807Z,18.62
2022-10-28T14:19:04.454Z,18.57
2022-10-28T14:22:03.772Z,18.56
2022-10-28T14:24:38.367Z,18.60
2022-10-28T14:27:10.298Z,18.60
2022-10-28T14:29:49.287Z,18.58
2022-10-28T14:32:33.350Z,18.59
2022-10-28T14:35:10.742Z,18.59
2022-10-28T14:38:09.287Z,18.56
2022-10-28T14:41:17.536Z,18.55
2022-10-28T14:44:02.878Z,18.54
2022-10-28T14:46:59.834Z,18.55
2022-10-28T14:49:32.460Z,18.52
2022-10-28T14:52:21.961Z,18.51
2022-10-28T14:54:55.860Z,18.45
2022-10-28T14:57:34.147Z,18.41
2022-10-28T15:00:08.348Z,18.35
2022-10-28T15:02:38.850Z,18.29
2022-10-28T15:05:20.778Z,18.21
2022-10-28T15:07:49.516Z,18.15
2022-10-28T15:10:28.178Z,18.07
2022-10-28T15:12:59.425Z,18.01
2022-10-28T15:15:31.034Z,17.95
2022-10-28T15:18:01.981Z,17.89
2022-10-28T15:20:36.338Z,17.78
2022-10-28T15:23:19.785Z,17.71
2022-10-28T15:26:10.610Z,17.66
2022-10-28T15:28:40.771Z,17.63
2022-10-28T15:31:11.229Z,17.60
2022-10-28T15:33:41.784Z,17.54
2022-10-28T15:36:18.568Z,17.50
2022-10-28T15:38:51.308Z,17.44
2022-10-28T15:41:21.906Z,17.40
2022-10-28T15:43:59.855Z,17.31
2022-10-28T15:46:30.537Z,17.17
2022-10-28T15:49:02.509Z,17.08
2022-10-28T15:51:31.124Z,16.99
2022-10-28T15:54:18.837Z,16.92
2022-10-28T15:56:59.224Z,16.83
2022-10-28T15:59:28.060Z,16.74
2022-10-28T16:02:00.085Z,16.65
2022-10-28T16:04:46.164Z,16.58
2022-10-28T16:07:14.800Z,16.51
2022-10-28T16:09:47.303Z,16.45
2022-10-28T16:12:23.302Z,16.40
2022-10-28T16:14:59.689Z,16.35
2022-10-28T16:17:31.540Z,16.33
2022-10-28T16:20:17.124Z,16.34
2022-10-28T16:22:48.695Z,16.34
2022-10-28T16:25:23.030Z,16.34
2022-10-28T16:27:52.229Z,16.34
2022-10-28T16:32:53.313Z,16.31
2022-10-28T16:35:25.059Z,16.28
2022-10-28T16:37:55.697Z,16.27
2022-10-28T16:40:49.570Z,16.25
2022-10-28T16:43:17.957Z,16.23
2022-10-28T16:45:48.041Z,16.19
2022-10-28T16:48:18.788Z,16.18
2022-10-28T16:50:53.268Z,16.15
2022-10-28T16:53:22.667Z,16.14
2022-10-28T16:55:51.850Z,16.11
2022-10-28T16:58:23.197Z,16.04
2022-10-28T17:00:56.563Z,15.96
2022-10-28T17:03:25.160Z,15.93
2022-10-28T17:05:54.083Z,15.90
2022-10-28T17:08:42.555Z,15.88
2022-10-28T17:11:16.046Z,15.85
2022-10-28T17:13:48.818Z,15.79
2022-10-28T17:16:18.097Z,15.76
2022-10-28T17:18:50.328Z,15.71
2022-10-28T17:21:20.092Z,15.68
2022-10-28T17:23:48.748Z,15.64
2022-10-28T17:26:18.210Z,15.62
2022-10-28T17:28:52.908Z,15.60
2022-10-28T17:31:24.967Z,15.56
2022-10-28T17:33:56.716Z,15.55
2022-10-28T17:36:26.270Z,15.54
2022-10-28T17:38:55.566Z,15.52
2022-10-28T17:41:24.875Z,15.51
2022-10-28T17:43:54.632Z,15.52
2022-10-28T17:46:24.620Z,15.52
2022-10-28T17:48:54.875Z,15.49
2022-10-28T17:51:25.683Z,15.49
2022-10-28T17:53:56.456Z,15.51
2022-10-28T17:56:25.674Z,15.52
2022-10-28T17:58:55.221Z,15.51
2022-10-28T18:01:24.792Z,15.48
2022-10-28T18:03:55.287Z,15.45
2022-10-28T18:06:24.884Z,15.43
2022-10-28T18:08:54.936Z,15.42
2022-10-28T18:11:24.009Z,15.41
2022-10-28T18:14:18.561Z,15.36
2022-10-28T18:16:47.419Z,15.33
2022-10-28T18:19:16.910Z,15.30
2022-10-28T18:21:46.063Z,15.28
2022-10-28T18:24:14.863Z,15.25
2022-10-28T18:26:44.631Z,15.23
2022-10-28T18:29:13.912Z,15.21
2022-10-28T18:31:44.943Z,15.17
2022-10-28T18:34:14.810Z,15.14
2022-10-28T18:36:44.773Z,15.11
2022-10-28T18:39:15.849Z,15.10
2022-10-28T18:41:45.249Z,15.07
2022-10-28T18:44:17.820Z,15.04
2022-10-28T18:46:46.988Z,15.00
2022-10-28T18:49:16.340Z,14.99
2022-10-28T18:51:46.104Z,14.97
2022-10-28T18:54:15.310Z,14.94
2022-10-28T18:56:47.662Z,14.92
2022-10-28T18:59:18.310Z,14.90
2022-10-28T19:01:48.379Z,14.86
2022-10-28T19:04:18.775Z,14.84
2022-10-28T19:06:49.154Z,14.80
2022-10-28T19:09:18.773Z,14.72
2022-10-28T19:11:47.618Z,14.70
2022-10-28T19:14:39.065Z,14.69
2022-10-28T19:17:14.249Z,14.68
2022-10-28T19:19:43.225Z,14.69
2022-10-28T19:22:14.332Z,14.69
2022-10-28T19:24:43.786Z,14.69
2022-10-28T19:27:13.234Z,14.70
2022-10-28T19:29:46.892Z,14.69
2022-10-28T19:32:17.957Z,14.68
2022-10-28T19:34:47.277Z,14.67
2022-10-28T19:37:16.667Z,14.66
2022-10-28T19:39:46.012Z,14.64
2022-10-28T19:42:15.485Z,14.63
2022-10-28T19:44:44.172Z,14.63
2022-10-28T19:47:14.269Z,14.58
2022-10-28T19:49:44.493Z,14.55
2022-10-28T19:52:15.914Z,14.56
2022-10-28T19:54:44.894Z,14.56
2022-10-28T19:57:16.122Z,14.57
2022-10-28T19:59:45.229Z,14.58
2022-10-28T20:02:15.517Z,14.57
2022-10-28T20:04:45.400Z,14.56
2022-10-28T20:07:15.863Z,14.54
2022-10-28T20:09:45.672Z,14.53
2022-10-28T20:12:15.305Z,14.50
2022-10-28T20:14:46.514Z,14.50
2022-10-28T20:17:16.677Z,14.49
2022-10-28T20:19:46.051Z,14.47
2022-10-28T20:22:17.350Z,14.45
2022-10-28T20:24:45.925Z,14.41
2022-10-28T20:27:15.583Z,14.37
2022-10-28T20:29:45.863Z,14.33
2022-10-28T20:32:15.782Z,14.33
2022-10-28T20:34:45.819Z,14.26
2022-10-28T20:37:14.646Z,14.17
2022-10-28T20:39:44.626Z,14.12
2022-10-28T20:42:13.343Z,14.08
2022-10-28T20:44:41.849Z,14.07
2022-10-28T20:47:10.474Z,14.07
2022-10-28T20:49:41.959Z,14.08
2022-10-28T20:52:18.618Z,14.06
2022-10-28T20:54:47.644Z,14.02
2022-10-28T20:57:16.845Z,14.01
2022-10-28T20:59:45.533Z,14.03
2022-10-28T21:02:14.832Z,14.01
2022-10-28T21:04:45.575Z,13.97
2022-10-28T21:07:14.013Z,13.99
2022-10-28T21:09:42.596Z,13.98
2022-10-28T21:12:11.157Z,13.97
2022-10-28T21:14:40.513Z,13.97
2022-10-28T21:17:09.954Z,13.99
2022-10-28T21:19:39.275Z,14.01
2022-10-28T21:22:08.402Z,14.04
2022-10-28T21:24:37.341Z,14.08
2022-10-28T21:27:06.874Z,14.09
2022-10-28T21:29:35.536Z,14.12
2022-10-28T21:32:04.279Z,14.16
2022-10-28T21:34:33.827Z,14.18
2022-10-28T21:37:02.870Z,14.20
2022-10-28T21:39:31.672Z,14.20
2022-10-28T21:42:00.329Z,14.19
2022-10-28T21:44:29.777Z,14.20
2022-10-28T21:46:59.259Z,14.20
2022-10-28T21:49:28.285Z,14.19
2022-10-28T21:51:57.266Z,14.20
2022-10-28T21:54:25.698Z,14.20
2022-10-28T21:56:54.222Z,14.21
2022-10-28T21:59:22.643Z,14.19
2022-10-28T22:01:51.412Z,14.16
2022-10-28T22:04:20.348Z,14.17
2022-10-28T22:06:48.948Z,14.16
2022-10-28T22:09:17.521Z,14.15
2022-10-28T22:11:50.543Z,14.13
2022-10-28T22:14:51.352Z,14.11
2022-10-28T22:17:19.865Z,14.10
2022-10-28T22:19:49.406Z,14.05
2022-10-28T22:22:17.859Z,14.05
2022-10-28T22:24:46.550Z,14.01
2022-10-28T22:27:15.150Z,13.98
2022-10-28T22:29:43.714Z,13.97
2022-10-28T22:32:12.158Z,13.97
2022-10-28T22:34:40.743Z,13.95
2022-10-28T22:37:09.257Z,13.93
2022-10-28T22:39:37.716Z,13.87
2022-10-28T22:42:06.261Z,13.84
2022-10-28T22:44:34.680Z,13.81
2022-10-28T22:47:03.746Z,13.82
2022-10-28T22:49:32.250Z,13.82
2022-10-28T22:52:00.648Z,13.84
2022-10-28T22:54:29.139Z,13.85
2022-10-28T22:56:57.679Z,13.86
2022-10-28T22:59:26.135Z,13.86
2022-10-28T23:01:54.760Z,13.88
2022-10-28T23:04:23.395Z,13.85
2022-10-28T23:06:51.918Z,13.82
2022-10-28T23:09:20.956Z,13.79
2022-10-28T23:11:51.298Z,13.76
2022-10-28T23:14:19.906Z,13.72
2022-10-28T23:16:49.562Z,13.69
2022-10-28T23:19:18.105Z,13.68
2022-10-28T23:21:46.501Z,13.67
2022-10-28T23:24:14.962Z,13.64
2022-10-28T23:26:43.908Z,13.60
2022-10-28T23:29:14.547Z,13.55
2022-10-28T23:31:43.052Z,13.52
2022-10-28T23:34:11.580Z,13.51
2022-10-28T23:36:40.692Z,13.50
2022-10-28T23:39:09.272Z,13.49
2022-10-28T23:41:37.869Z,13.46
2022-10-28T23:44:06.359Z,13.41
2022-10-28T23:46:37.412Z,13.34
2022-10-28T23:49:06.426Z,13.30
2022-10-28T23:51:34.900Z,13.28
2022-10-28T23:54:04.070Z,13.27
2022-10-28T23:56:32.693Z,13.26
2022-10-28T23:59:01.193Z,13.26
